Terminal Aerodrome Forecast
Issued by NWS

Current Version | Previous Version | Graphics & Text | Print | Product List | Glossary On
Versions: 1 2 3 4 5 6 7 8 9 10 11 12 13 14 15 16 17 18
000
FTUS41 KPBZ 210533
TAFHLG
TAF
KHLG 210533Z 2106/2206 19006KT P6SM SCT080
     FM210800 22005KT P6SM BKN080
     FM211800 28010G16KT P6SM BKN080
     FM212200 27006KT P6SM BKN070
     FM220000 32004KT P6SM SCT070=

USA.gov is the U.S. government's official web portal to all federal, state and local government web resources and services.